sensor_id;sensor_type;location;lat;lon;timestamp;P1;P2;P0
44871;PMS7003;30602;51.060;17.226;2022-08-20T00:01:00;25;23;17
44871;PMS7003;30602;51.060;17.226;2022-08-20T00:04:45;24;20;15
44871;PMS7003;30602;51.060;17.226;2022-08-20T00:07:52;19;17;13
44871;PMS7003;30602;51.060;17.226;2022-08-20T00:11:33;19;18;14
44871;PMS7003;30602;51.060;17.226;2022-08-20T00:15:09;19;18;14
44871;PMS7003;30602;51.060;17.226;2022-08-20T00:18:29;19;18;14
44871;PMS7003;30602;51.060;17.226;2022-08-20T00:22:07;14;13;10
44871;PMS7003;30602;51.060;17.226;2022-08-20T00:25:35;17;16;13
44871;PMS7003;30602;51.060;17.226;2022-08-20T00:28:57;24;19;14
44871;PMS7003;30602;51.060;17.226;2022-08-20T00:32:27;22;18;13
44871;PMS7003;30602;51.060;17.226;2022-08-20T00:36:07;21;18;14
44871;PMS7003;30602;51.060;17.226;2022-08-20T00:39:34;21;19;14
44871;PMS7003;30602;51.060;17.226;2022-08-20T00:47:22;20;18;14
44871;PMS7003;30602;51.060;17.226;2022-08-20T00:51:00;21;19;14
44871;PMS7003;30602;51.060;17.226;2022-08-20T00:58:32;21;17;14
44871;PMS7003;30602;51.060;17.226;2022-08-20T01:01:44;25;20;15
44871;PMS7003;30602;51.060;17.226;2022-08-20T01:04:58;24;22;16
44871;PMS7003;30602;51.060;17.226;2022-08-20T01:08:07;21;19;14
44871;PMS7003;30602;51.060;17.226;2022-08-20T01:11:57;22;20;16
44871;PMS7003;30602;51.060;17.226;2022-08-20T01:15:29;19;17;13
44871;PMS7003;30602;51.060;17.226;2022-08-20T01:18:58;21;19;14
44871;PMS7003;30602;51.060;17.226;2022-08-20T01:26:21;22;19;14
44871;PMS7003;30602;51.060;17.226;2022-08-20T01:30:14;21;20;15
44871;PMS7003;30602;51.060;17.226;2022-08-20T01:33:42;20;18;13
44871;PMS7003;30602;51.060;17.226;2022-08-20T01:37:25;20;17;14
44871;PMS7003;30602;51.060;17.226;2022-08-20T01:47:49;20;17;14
44871;PMS7003;30602;51.060;17.226;2022-08-20T01:51:27;26;23;14
44871;PMS7003;30602;51.060;17.226;2022-08-20T01:54:58;20;18;16
44871;PMS7003;30602;51.060;17.226;2022-08-20T01:58:10;19;17;13
44871;PMS7003;30602;51.060;17.226;2022-08-20T02:01:54;22;21;15
44871;PMS7003;30602;51.060;17.226;2022-08-20T02:05:17;21;19;15
44871;PMS7003;30602;51.060;17.226;2022-08-20T02:08:33;26;22;16
44871;PMS7003;30602;51.060;17.226;2022-08-20T02:11:42;22;20;15
44871;PMS7003;30602;51.060;17.226;2022-08-20T02:15:50;20;18;14
44871;PMS7003;30602;51.060;17.226;2022-08-20T02:19:30;21;19;14
44871;PMS7003;30602;51.060;17.226;2022-08-20T02:23:22;20;18;13
44871;PMS7003;30602;51.060;17.226;2022-08-20T02:26:43;26;22;16
44871;PMS7003;30602;51.060;17.226;2022-08-20T02:29:52;19;19;15
44871;PMS7003;30602;51.060;17.226;2022-08-20T02:33:12;21;19;15
44871;PMS7003;30602;51.060;17.226;2022-08-20T02:36:33;21;20;15
44871;PMS7003;30602;51.060;17.226;2022-08-20T02:40:17;20;19;12
44871;PMS7003;30602;51.060;17.226;2022-08-20T02:43:44;21;19;15
44871;PMS7003;30602;51.060;17.226;2022-08-20T02:47:27;24;22;15
44871;PMS7003;30602;51.060;17.226;2022-08-20T02:50:59;21;18;13
44871;PMS7003;30602;51.060;17.226;2022-08-20T02:54:10;19;18;14
44871;PMS7003;30602;51.060;17.226;2022-08-20T02:58:10;19;17;14
44871;PMS7003;30602;51.060;17.226;2022-08-20T03:01:40;22;20;15
44871;PMS7003;30602;51.060;17.226;2022-08-20T03:04:47;24;20;15
44871;PMS7003;30602;51.060;17.226;2022-08-20T03:08:29;20;18;13
44871;PMS7003;30602;51.060;17.226;2022-08-20T03:11:59;20;20;15
44871;PMS7003;30602;51.060;17.226;2022-08-20T03:15:33;23;19;13
44871;PMS7003;30602;51.060;17.226;2022-08-20T03:18:52;25;21;15
44871;PMS7003;30602;51.060;17.226;2022-08-20T03:22:02;19;18;14
44871;PMS7003;30602;51.060;17.226;2022-08-20T03:25:25;27;22;15
44871;PMS7003;30602;51.060;17.226;2022-08-20T03:29:17;22;20;15
44871;PMS7003;30602;51.060;17.226;2022-08-20T03:32:31;24;20;15
44871;PMS7003;30602;51.060;17.226;2022-08-20T03:35:59;22;20;16
44871;PMS7003;30602;51.060;17.226;2022-08-20T03:39:07;25;23;17
44871;PMS7003;30602;51.060;17.226;2022-08-20T03:42:29;23;21;16
44871;PMS7003;30602;51.060;17.226;2022-08-20T03:45:45;26;21;15
44871;PMS7003;30602;51.060;17.226;2022-08-20T03:48:53;26;24;17
44871;PMS7003;30602;51.060;17.226;2022-08-20T03:52:03;25;21;15
44871;PMS7003;30602;51.060;17.226;2022-08-20T03:55:30;22;20;15
44871;PMS7003;30602;51.060;17.226;2022-08-20T03:58:54;24;20;16
44871;PMS7003;30602;51.060;17.226;2022-08-20T04:02:45;20;19;14
44871;PMS7003;30602;51.060;17.226;2022-08-20T04:06:43;25;21;16
44871;PMS7003;30602;51.060;17.226;2022-08-20T04:10:11;26;21;17
44871;PMS7003;30602;51.060;17.226;2022-08-20T04:13:57;24;22;16
44871;PMS7003;30602;51.060;17.226;2022-08-20T04:17:06;21;19;15
44871;PMS7003;30602;51.060;17.226;2022-08-20T04:20:22;21;21;16
44871;PMS7003;30602;51.060;17.226;2022-08-20T04:24:21;23;21;15
44871;PMS7003;30602;51.060;17.226;2022-08-20T04:28:29;24;22;16
44871;PMS7003;30602;51.060;17.226;2022-08-20T04:31:41;23;18;15
44871;PMS7003;30602;51.060;17.226;2022-08-20T04:36:10;27;23;16
44871;PMS7003;30602;51.060;17.226;2022-08-20T04:39:42;22;21;14
44871;PMS7003;30602;51.060;17.226;2022-08-20T04:42:52;21;20;15
44871;PMS7003;30602;51.060;17.226;2022-08-20T04:46:15;25;22;16
44871;PMS7003;30602;51.060;17.226;2022-08-20T04:49:25;24;20;14
44871;PMS7003;30602;51.060;17.226;2022-08-20T04:52:34;23;21;15
44871;PMS7003;30602;51.060;17.226;2022-08-20T04:55:44;22;21;16
44871;PMS7003;30602;51.060;17.226;2022-08-20T04:58:54;25;21;16
44871;PMS7003;30602;51.060;17.226;2022-08-20T05:02:37;18;18;15
44871;PMS7003;30602;51.060;17.226;2022-08-20T05:05:49;26;21;16
44871;PMS7003;30602;51.060;17.226;2022-08-20T05:09:15;22;21;15
44871;PMS7003;30602;51.060;17.226;2022-08-20T05:13:05;25;23;17
44871;PMS7003;30602;51.060;17.226;2022-08-20T05:16:55;27;24;15
44871;PMS7003;30602;51.060;17.226;2022-08-20T05:20:06;25;19;15
44871;PMS7003;30602;51.060;17.226;2022-08-20T05:23:18;22;21;16
44871;PMS7003;30602;51.060;17.226;2022-08-20T05:27:11;26;23;18
44871;PMS7003;30602;51.060;17.226;2022-08-20T05:30:43;21;20;16
44871;PMS7003;30602;51.060;17.226;2022-08-20T05:34:11;25;23;16
44871;PMS7003;30602;51.060;17.226;2022-08-20T05:37:44;21;20;14
44871;PMS7003;30602;51.060;17.226;2022-08-20T05:40:53;27;24;18
44871;PMS7003;30602;51.060;17.226;2022-08-20T05:44:06;28;24;17
44871;PMS7003;30602;51.060;17.226;2022-08-20T05:48:08;26;23;17
44871;PMS7003;30602;51.060;17.226;2022-08-20T05:51:43;25;21;16
44871;PMS7003;30602;51.060;17.226;2022-08-20T05:54:50;27;23;15
44871;PMS7003;30602;51.060;17.226;2022-08-20T06:02:14;24;21;16
44871;PMS7003;30602;51.060;17.226;2022-08-20T06:05:33;25;21;17
44871;PMS7003;30602;51.060;17.226;2022-08-20T06:08:55;26;23;18
44871;PMS7003;30602;51.060;17.226;2022-08-20T06:12:36;23;21;16
44871;PMS7003;30602;51.060;17.226;2022-08-20T06:16:29;32;25;18
44871;PMS7003;30602;51.060;17.226;2022-08-20T06:19:39;33;30;21
44871;PMS7003;30602;51.060;17.226;2022-08-20T06:22:51;45;36;24
44871;PMS7003;30602;51.060;17.226;2022-08-20T06:26:26;47;37;23
44871;PMS7003;30602;51.060;17.226;2022-08-20T06:29:40;49;40;27
44871;PMS7003;30602;51.060;17.226;2022-08-20T06:33:16;52;41;27
44871;PMS7003;30602;51.060;17.226;2022-08-20T06:36:49;55;44;28
44871;PMS7003;30602;51.060;17.226;2022-08-20T06:40:04;53;43;27
44871;PMS7003;30602;51.060;17.226;2022-08-20T06:43:46;54;43;27
44871;PMS7003;30602;51.060;17.226;2022-08-20T06:47:00;48;40;27
44871;PMS7003;30602;51.060;17.226;2022-08-20T06:50:19;50;41;26
44871;PMS7003;30602;51.060;17.226;2022-08-20T06:54:12;49;41;26
44871;PMS7003;30602;51.060;17.226;2022-08-20T06:57:21;51;41;25
44871;PMS7003;30602;51.060;17.226;2022-08-20T07:00:54;47;38;23
44871;PMS7003;30602;51.060;17.226;2022-08-20T07:04:52;49;39;24
44871;PMS7003;30602;51.060;17.226;2022-08-20T07:08:15;48;41;25
44871;PMS7003;30602;51.060;17.226;2022-08-20T07:11:59;48;39;24
44871;PMS7003;30602;51.060;17.226;2022-08-20T07:15:24;57;41;26
44871;PMS7003;30602;51.060;17.226;2022-08-20T07:18:39;49;40;26
44871;PMS7003;30602;51.060;17.226;2022-08-20T07:21:52;50;40;26
44871;PMS7003;30602;51.060;17.226;2022-08-20T07:25:29;45;39;24
44871;PMS7003;30602;51.060;17.226;2022-08-20T07:28:48;48;40;26
44871;PMS7003;30602;51.060;17.226;2022-08-20T07:36:21;51;40;25
44871;PMS7003;30602;51.060;17.226;2022-08-20T07:39:55;47;40;26
44871;PMS7003;30602;51.060;17.226;2022-08-20T07:43:04;47;39;26
44871;PMS7003;30602;51.060;17.226;2022-08-20T07:46:19;53;43;27
44871;PMS7003;30602;51.060;17.226;2022-08-20T07:49:53;48;39;26
44871;PMS7003;30602;51.060;17.226;2022-08-20T07:53:06;50;41;28
44871;PMS7003;30602;51.060;17.226;2022-08-20T07:56:51;49;40;25
44871;PMS7003;30602;51.060;17.226;2022-08-20T08:00:22;48;39;26
44871;PMS7003;30602;51.060;17.226;2022-08-20T08:03:35;47;38;25
44871;PMS7003;30602;51.060;17.226;2022-08-20T08:07:01;49;40;26
44871;PMS7003;30602;51.060;17.226;2022-08-20T08:10:46;48;39;26
44871;PMS7003;30602;51.060;17.226;2022-08-20T08:14:24;49;39;26
44871;PMS7003;30602;51.060;17.226;2022-08-20T08:17:42;51;41;25
44871;PMS7003;30602;51.060;17.226;2022-08-20T08:21:18;48;40;26
44871;PMS7003;30602;51.060;17.226;2022-08-20T08:24:36;47;39;26
44871;PMS7003;30602;51.060;17.226;2022-08-20T08:28:09;48;40;26
44871;PMS7003;30602;51.060;17.226;2022-08-20T08:31:39;50;39;26
44871;PMS7003;30602;51.060;17.226;2022-08-20T08:35:11;50;39;26
44871;PMS7003;30602;51.060;17.226;2022-08-20T08:39:00;50;39;26
44871;PMS7003;30602;51.060;17.226;2022-08-20T08:42:33;49;40;26
44871;PMS7003;30602;51.060;17.226;2022-08-20T08:45:44;45;37;24
44871;PMS7003;30602;51.060;17.226;2022-08-20T08:48:59;46;38;26
44871;PMS7003;30602;51.060;17.226;2022-08-20T08:52:26;46;38;26
44871;PMS7003;30602;51.060;17.226;2022-08-20T08:55:59;49;38;25
44871;PMS7003;30602;51.060;17.226;2022-08-20T08:59:12;45;38;25
44871;PMS7003;30602;51.060;17.226;2022-08-20T09:02:39;45;37;25
44871;PMS7003;30602;51.060;17.226;2022-08-20T09:06:13;45;38;26
44871;PMS7003;30602;51.060;17.226;2022-08-20T09:10:35;49;39;24
44871;PMS7003;30602;51.060;17.226;2022-08-20T09:13:47;43;36;25
44871;PMS7003;30602;51.060;17.226;2022-08-20T09:17:18;46;38;24
44871;PMS7003;30602;51.060;17.226;2022-08-20T09:20:37;46;37;24
44871;PMS7003;30602;51.060;17.226;2022-08-20T09:24:01;48;37;23
44871;PMS7003;30602;51.060;17.226;2022-08-20T09:31:19;40;34;24
44871;PMS7003;30602;51.060;17.226;2022-08-20T09:34:43;42;36;25
44871;PMS7003;30602;51.060;17.226;2022-08-20T09:38:28;46;37;25
44871;PMS7003;30602;51.060;17.226;2022-08-20T09:46:22;45;37;24
44871;PMS7003;30602;51.060;17.226;2022-08-20T09:49:38;39;34;23
44871;PMS7003;30602;51.060;17.226;2022-08-20T09:53:11;44;36;24
44871;PMS7003;30602;51.060;17.226;2022-08-20T09:56:24;43;34;24
44871;PMS7003;30602;51.060;17.226;2022-08-20T09:59:38;45;36;23
44871;PMS7003;30602;51.060;17.226;2022-08-20T10:03:17;41;32;22
44871;PMS7003;30602;51.060;17.226;2022-08-20T10:06:44;38;33;23
44871;PMS7003;30602;51.060;17.226;2022-08-20T10:10:43;40;34;22
44871;PMS7003;30602;51.060;17.226;2022-08-20T10:13:56;44;34;23
44871;PMS7003;30602;51.060;17.226;2022-08-20T10:17:09;42;35;23
44871;PMS7003;30602;51.060;17.226;2022-08-20T10:20:26;39;34;23
44871;PMS7003;30602;51.060;17.226;2022-08-20T10:23:36;38;33;24
44871;PMS7003;30602;51.060;17.226;2022-08-20T10:26:54;39;33;22
44871;PMS7003;30602;51.060;17.226;2022-08-20T10:30:56;36;31;23
44871;PMS7003;30602;51.060;17.226;2022-08-20T10:34:42;37;32;22
44871;PMS7003;30602;51.060;17.226;2022-08-20T10:37:55;41;34;23
44871;PMS7003;30602;51.060;17.226;2022-08-20T10:41:30;41;33;23
44871;PMS7003;30602;51.060;17.226;2022-08-20T10:45:39;41;34;23
44871;PMS7003;30602;51.060;17.226;2022-08-20T10:49:10;37;32;22
44871;PMS7003;30602;51.060;17.226;2022-08-20T10:52:24;47;36;24
44871;PMS7003;30602;51.060;17.226;2022-08-20T10:55:51;42;33;23
44871;PMS7003;30602;51.060;17.226;2022-08-20T10:59:07;39;33;23
44871;PMS7003;30602;51.060;17.226;2022-08-20T11:02:24;41;35;23
44871;PMS7003;30602;51.060;17.226;2022-08-20T11:05:54;36;32;22
44871;PMS7003;30602;51.060;17.226;2022-08-20T11:09:18;38;33;22
44871;PMS7003;30602;51.060;17.226;2022-08-20T11:12:26;37;32;22
44871;PMS7003;30602;51.060;17.226;2022-08-20T11:15:55;37;31;22
44871;PMS7003;30602;51.060;17.226;2022-08-20T11:19:51;38;32;22
44871;PMS7003;30602;51.060;17.226;2022-08-20T11:23:17;39;32;21
44871;PMS7003;30602;51.060;17.226;2022-08-20T11:26:43;35;32;22
44871;PMS7003;30602;51.060;17.226;2022-08-20T11:29:57;42;34;22
44871;PMS7003;30602;51.060;17.226;2022-08-20T11:33:29;37;33;23
44871;PMS7003;30602;51.060;17.226;2022-08-20T11:37:02;39;32;23
44871;PMS7003;30602;51.060;17.226;2022-08-20T11:40:23;33;30;21
44871;PMS7003;30602;51.060;17.226;2022-08-20T11:43:38;37;31;23
44871;PMS7003;30602;51.060;17.226;2022-08-20T11:46:53;39;33;22
44871;PMS7003;30602;51.060;17.226;2022-08-20T11:50:19;37;31;23
44871;PMS7003;30602;51.060;17.226;2022-08-20T11:53:47;37;31;22
44871;PMS7003;30602;51.060;17.226;2022-08-20T12:01:15;33;29;21
44871;PMS7003;30602;51.060;17.226;2022-08-20T12:04:26;36;30;22
44871;PMS7003;30602;51.060;17.226;2022-08-20T12:07:36;36;31;22
44871;PMS7003;30602;51.060;17.226;2022-08-20T12:10:46;33;31;22
44871;PMS7003;30602;51.060;17.226;2022-08-20T12:14:16;36;32;22
44871;PMS7003;30602;51.060;17.226;2022-08-20T12:18:19;42;33;22
44871;PMS7003;30602;51.060;17.226;2022-08-20T12:21:31;40;33;21
44871;PMS7003;30602;51.060;17.226;2022-08-20T12:25:00;41;32;22
44871;PMS7003;30602;51.060;17.226;2022-08-20T12:28:43;34;29;20
44871;PMS7003;30602;51.060;17.226;2022-08-20T12:31:56;38;33;22
44871;PMS7003;30602;51.060;17.226;2022-08-20T12:35:26;32;30;21
44871;PMS7003;30602;51.060;17.226;2022-08-20T12:39:04;33;30;21
44871;PMS7003;30602;51.060;17.226;2022-08-20T12:42:17;28;26;20
44871;PMS7003;30602;51.060;17.226;2022-08-20T12:45:29;34;30;21
44871;PMS7003;30602;51.060;17.226;2022-08-20T12:48:49;36;32;21
44871;PMS7003;30602;51.060;17.226;2022-08-20T12:52:10;30;26;20
44871;PMS7003;30602;51.060;17.226;2022-08-20T12:55:35;34;31;21
44871;PMS7003;30602;51.060;17.226;2022-08-20T12:58:45;32;30;20
44871;PMS7003;30602;51.060;17.226;2022-08-20T13:01:53;31;28;20
44871;PMS7003;30602;51.060;17.226;2022-08-20T13:05:36;31;29;20
44871;PMS7003;30602;51.060;17.226;2022-08-20T13:09:05;31;28;18
44871;PMS7003;30602;51.060;17.226;2022-08-20T13:12:17;30;28;21
44871;PMS7003;30602;51.060;17.226;2022-08-20T13:15:37;30;27;20
44871;PMS7003;30602;51.060;17.226;2022-08-20T13:18:45;29;25;19
44871;PMS7003;30602;51.060;17.226;2022-08-20T13:21:52;27;26;19
44871;PMS7003;30602;51.060;17.226;2022-08-20T13:25:06;28;26;19
44871;PMS7003;30602;51.060;17.226;2022-08-20T13:28:41;29;26;19
44871;PMS7003;30602;51.060;17.226;2022-08-20T13:32:18;27;24;19
44871;PMS7003;30602;51.060;17.226;2022-08-20T13:36:03;27;25;19
44871;PMS7003;30602;51.060;17.226;2022-08-20T13:39:33;25;24;18
44871;PMS7003;30602;51.060;17.226;2022-08-20T13:42:48;27;25;19
44871;PMS7003;30602;51.060;17.226;2022-08-20T13:46:37;24;24;19
44871;PMS7003;30602;51.060;17.226;2022-08-20T13:49:47;26;24;18
44871;PMS7003;30602;51.060;17.226;2022-08-20T13:53:08;24;22;16
44871;PMS7003;30602;51.060;17.226;2022-08-20T13:56:21;27;25;18
44871;PMS7003;30602;51.060;17.226;2022-08-20T13:59:54;24;22;17
44871;PMS7003;30602;51.060;17.226;2022-08-20T14:03:04;28;24;18
44871;PMS7003;30602;51.060;17.226;2022-08-20T14:06:32;26;25;18
44871;PMS7003;30602;51.060;17.226;2022-08-20T14:10:05;26;25;17
44871;PMS7003;30602;51.060;17.226;2022-08-20T14:13:19;23;20;16
44871;PMS7003;30602;51.060;17.226;2022-08-20T14:16:37;25;23;18
44871;PMS7003;30602;51.060;17.226;2022-08-20T14:20:13;23;20;16
44871;PMS7003;30602;51.060;17.226;2022-08-20T14:23:35;24;22;17
44871;PMS7003;30602;51.060;17.226;2022-08-20T14:27:03;21;20;16
44871;PMS7003;30602;51.060;17.226;2022-08-20T14:30:13;21;20;15
44871;PMS7003;30602;51.060;17.226;2022-08-20T14:33:24;26;22;17
44871;PMS7003;30602;51.060;17.226;2022-08-20T14:36:33;23;21;17
44871;PMS7003;30602;51.060;17.226;2022-08-20T14:39:42;25;21;16
44871;PMS7003;30602;51.060;17.226;2022-08-20T14:43:01;26;22;17
44871;PMS7003;30602;51.060;17.226;2022-08-20T14:46:29;29;23;16
44871;PMS7003;30602;51.060;17.226;2022-08-20T14:50:01;22;21;16
44871;PMS7003;30602;51.060;17.226;2022-08-20T14:53:18;25;23;18
44871;PMS7003;30602;51.060;17.226;2022-08-20T14:56:52;25;22;17
44871;PMS7003;30602;51.060;17.226;2022-08-20T14:59:59;26;23;19
44871;PMS7003;30602;51.060;17.226;2022-08-20T15:04:06;27;24;17
44871;PMS7003;30602;51.060;17.226;2022-08-20T15:07:47;23;23;18
44871;PMS7003;30602;51.060;17.226;2022-08-20T15:14:58;13;12;9
44871;PMS7003;30602;51.060;17.226;2022-08-20T15:18:39;13;11;8
44871;PMS7003;30602;51.060;17.226;2022-08-20T15:22:09;9;7;6
44871;PMS7003;30602;51.060;17.226;2022-08-20T15:25:18;5;5;4
44871;PMS7003;30602;51.060;17.226;2022-08-20T15:29:01;9;6;4
44871;PMS7003;30602;51.060;17.226;2022-08-20T15:32:31;5;5;4
44871;PMS7003;30602;51.060;17.226;2022-08-20T15:36:02;9;6;5
44871;PMS7003;30602;51.060;17.226;2022-08-20T15:39:14;9;9;7
44871;PMS7003;30602;51.060;17.226;2022-08-20T15:42:43;13;10;8
44871;PMS7003;30602;51.060;17.226;2022-08-20T15:46:37;10;9;8
44871;PMS7003;30602;51.060;17.226;2022-08-20T15:54:05;11;10;8
44871;PMS7003;30602;51.060;17.226;2022-08-20T15:57:43;14;9;8
44871;PMS7003;30602;51.060;17.226;2022-08-20T16:12:33;10;9;7
44871;PMS7003;30602;51.060;17.226;2022-08-20T16:15:48;15;13;10
44871;PMS7003;30602;51.060;17.226;2022-08-20T16:22:56;16;13;10
44871;PMS7003;30602;51.060;17.226;2022-08-20T16:30:32;12;11;9
44871;PMS7003;30602;51.060;17.226;2022-08-20T16:37:30;10;9;7
44871;PMS7003;30602;51.060;17.226;2022-08-20T16:44:40;6;5;4
44871;PMS7003;30602;51.060;17.226;2022-08-20T16:48:13;6;6;5
44871;PMS7003;30602;51.060;17.226;2022-08-20T16:55:29;6;6;5
44871;PMS7003;30602;51.060;17.226;2022-08-20T16:58:37;8;5;5
44871;PMS7003;30602;51.060;17.226;2022-08-20T17:05:45;9;5;5
44871;PMS7003;30602;51.060;17.226;2022-08-20T17:09:20;8;8;8
44871;PMS7003;30602;51.060;17.226;2022-08-20T17:12:57;12;9;6
44871;PMS7003;30602;51.060;17.226;2022-08-20T17:16:37;9;8;6
44871;PMS7003;30602;51.060;17.226;2022-08-20T17:20:18;20;17;11
44871;PMS7003;30602;51.060;17.226;2022-08-20T17:23:33;23;19;13
44871;PMS7003;30602;51.060;17.226;2022-08-20T17:26:50;12;11;9
44871;PMS7003;30602;51.060;17.226;2022-08-20T17:34:17;7;7;6
44871;PMS7003;30602;51.060;17.226;2022-08-20T17:37:53;9;8;6
44871;PMS7003;30602;51.060;17.226;2022-08-20T17:41:33;11;11;8
44871;PMS7003;30602;51.060;17.226;2022-08-20T17:45:14;6;6;5
44871;PMS7003;30602;51.060;17.226;2022-08-20T17:48:50;9;8;6
44871;PMS7003;30602;51.060;17.226;2022-08-20T17:52:01;6;5;4
44871;PMS7003;30602;51.060;17.226;2022-08-20T17:55:12;6;5;3
44871;PMS7003;30602;51.060;17.226;2022-08-20T17:58:47;5;5;4
44871;PMS7003;30602;51.060;17.226;2022-08-20T18:01:59;7;5;4
44871;PMS7003;30602;51.060;17.226;2022-08-20T18:05:13;5;5;4
44871;PMS7003;30602;51.060;17.226;2022-08-20T18:15:39;7;7;5
44871;PMS7003;30602;51.060;17.226;2022-08-20T18:22:27;8;6;5
44871;PMS7003;30602;51.060;17.226;2022-08-20T18:29:25;9;7;6
44871;PMS7003;30602;51.060;17.226;2022-08-20T18:33:07;11;11;8
44871;PMS7003;30602;51.060;17.226;2022-08-20T18:36:23;9;7;6
44871;PMS7003;30602;51.060;17.226;2022-08-20T18:39:45;7;7;6
44871;PMS7003;30602;51.060;17.226;2022-08-20T18:43:25;7;7;6
44871;PMS7003;30602;51.060;17.226;2022-08-20T18:46:22;7;6;5
44871;PMS7003;30602;51.060;17.226;2022-08-20T18:49:32;9;9;7
44871;PMS7003;30602;51.060;17.226;2022-08-20T19:00:16;8;8;6
44871;PMS7003;30602;51.060;17.226;2022-08-20T19:03:57;11;9;7
44871;PMS7003;30602;51.060;17.226;2022-08-20T19:07:23;10;8;6
44871;PMS7003;30602;51.060;17.226;2022-08-20T19:21:22;15;13;10
44871;PMS7003;30602;51.060;17.226;2022-08-20T19:25:01;23;19;14
44871;PMS7003;30602;51.060;17.226;2022-08-20T19:35:19;12;8;6
44871;PMS7003;30602;51.060;17.226;2022-08-20T19:39:11;11;8;6
44871;PMS7003;30602;51.060;17.226;2022-08-20T19:42:28;11;8;6
44871;PMS7003;30602;51.060;17.226;2022-08-20T19:45:49;10;7;6
44871;PMS7003;30602;51.060;17.226;2022-08-20T19:49:55;10;9;6
44871;PMS7003;30602;51.060;17.226;2022-08-20T19:53:46;10;9;6
44871;PMS7003;30602;51.060;17.226;2022-08-20T19:57:38;11;9;5
44871;PMS7003;30602;51.060;17.226;2022-08-20T20:01:07;10;10;8
44871;PMS7003;30602;51.060;17.226;2022-08-20T20:04:17;10;8;7
44871;PMS7003;30602;51.060;17.226;2022-08-20T20:07:27;11;11;8
44871;PMS7003;30602;51.060;17.226;2022-08-20T20:10:40;11;10;7
44871;PMS7003;30602;51.060;17.226;2022-08-20T20:14:11;13;10;8
44871;PMS7003;30602;51.060;17.226;2022-08-20T20:17:24;12;11;9
44871;PMS7003;30602;51.060;17.226;2022-08-20T20:20:49;17;15;11
44871;PMS7003;30602;51.060;17.226;2022-08-20T20:24:41;14;14;10
44871;PMS7003;30602;51.060;17.226;2022-08-20T20:27:57;17;13;10
44871;PMS7003;30602;51.060;17.226;2022-08-20T20:35:11;15;13;10
44871;PMS7003;30602;51.060;17.226;2022-08-20T20:38:33;14;12;9
44871;PMS7003;30602;51.060;17.226;2022-08-20T20:41:49;15;14;11
44871;PMS7003;30602;51.060;17.226;2022-08-20T20:45:21;17;13;10
44871;PMS7003;30602;51.060;17.226;2022-08-20T20:49:00;13;13;10
44871;PMS7003;30602;51.060;17.226;2022-08-20T20:52:24;20;15;12
44871;PMS7003;30602;51.060;17.226;2022-08-20T20:55:36;12;11;10
44871;PMS7003;30602;51.060;17.226;2022-08-20T20:58:50;16;14;10
44871;PMS7003;30602;51.060;17.226;2022-08-20T21:02:45;18;13;10
44871;PMS7003;30602;51.060;17.226;2022-08-20T21:06:37;15;14;11
44871;PMS7003;30602;51.060;17.226;2022-08-20T21:09:47;16;15;13
44871;PMS7003;30602;51.060;17.226;2022-08-20T21:13:51;20;18;11
44871;PMS7003;30602;51.060;17.226;2022-08-20T21:17:05;18;16;12
44871;PMS7003;30602;51.060;17.226;2022-08-20T21:20:37;17;15;12
44871;PMS7003;30602;51.060;17.226;2022-08-20T21:24:05;20;19;13
44871;PMS7003;30602;51.060;17.226;2022-08-20T21:27:35;20;19;14
44871;PMS7003;30602;51.060;17.226;2022-08-20T21:31:16;27;22;15
44871;PMS7003;30602;51.060;17.226;2022-08-20T21:35:21;20;19;13
44871;PMS7003;30602;51.060;17.226;2022-08-20T21:39:00;19;18;14
44871;PMS7003;30602;51.060;17.226;2022-08-20T21:42:18;21;20;14
44871;PMS7003;30602;51.060;17.226;2022-08-20T21:45:33;24;21;15
44871;PMS7003;30602;51.060;17.226;2022-08-20T21:49:02;18;17;14
44871;PMS7003;30602;51.060;17.226;2022-08-20T21:52:06;25;23;16
44871;PMS7003;30602;51.060;17.226;2022-08-20T21:55:46;20;19;14
44871;PMS7003;30602;51.060;17.226;2022-08-20T21:59:25;21;20;14
44871;PMS7003;30602;51.060;17.226;2022-08-20T22:02:36;18;17;13
44871;PMS7003;30602;51.060;17.226;2022-08-20T22:06:00;16;15;13
44871;PMS7003;30602;51.060;17.226;2022-08-20T22:09:09;18;15;10
44871;PMS7003;30602;51.060;17.226;2022-08-20T22:12:37;17;17;12
44871;PMS7003;30602;51.060;17.226;2022-08-20T22:16:03;17;15;11
44871;PMS7003;30602;51.060;17.226;2022-08-20T22:19:13;21;18;13
44871;PMS7003;30602;51.060;17.226;2022-08-20T22:22:56;14;13;11
44871;PMS7003;30602;51.060;17.226;2022-08-20T22:26:03;14;12;8
44871;PMS7003;30602;51.060;17.226;2022-08-20T22:29:12;14;12;9
44871;PMS7003;30602;51.060;17.226;2022-08-20T22:32:19;11;11;9
44871;PMS7003;30602;51.060;17.226;2022-08-20T22:35:29;13;13;11
44871;PMS7003;30602;51.060;17.226;2022-08-20T22:38:41;16;13;10
44871;PMS7003;30602;51.060;17.226;2022-08-20T22:42:10;15;11;9
44871;PMS7003;30602;51.060;17.226;2022-08-20T22:45:18;13;13;10
44871;PMS7003;30602;51.060;17.226;2022-08-20T22:48:26;12;12;10
44871;PMS7003;30602;51.060;17.226;2022-08-20T22:52:17;12;11;10
44871;PMS7003;30602;51.060;17.226;2022-08-20T22:56:00;14;12;9
44871;PMS7003;30602;51.060;17.226;2022-08-20T22:59:08;12;11;9
44871;PMS7003;30602;51.060;17.226;2022-08-20T23:02:50;13;12;10
44871;PMS7003;30602;51.060;17.226;2022-08-20T23:06:05;13;11;9
44871;PMS7003;30602;51.060;17.226;2022-08-20T23:09:44;12;11;8
44871;PMS7003;30602;51.060;17.226;2022-08-20T23:13:04;12;11;9
44871;PMS7003;30602;51.060;17.226;2022-08-20T23:16:36;10;9;6
44871;PMS7003;30602;51.060;17.226;2022-08-20T23:20:11;7;7;6
44871;PMS7003;30602;51.060;17.226;2022-08-20T23:23:42;9;9;7
44871;PMS7003;30602;51.060;17.226;2022-08-20T23:26:53;10;9;8
44871;PMS7003;30602;51.060;17.226;2022-08-20T23:30:32;11;10;8
44871;PMS7003;30602;51.060;17.226;2022-08-20T23:34:14;11;10;7
44871;PMS7003;30602;51.060;17.226;2022-08-20T23:37:21;10;9;7
44871;PMS7003;30602;51.060;17.226;2022-08-20T23:41:00;13;11;8
44871;PMS7003;30602;51.060;17.226;2022-08-20T23:44:09;10;10;7
44871;PMS7003;30602;51.060;17.226;2022-08-20T23:47:50;10;10;8
44871;PMS7003;30602;51.060;17.226;2022-08-20T23:50:57;12;9;8
44871;PMS7003;30602;51.060;17.226;2022-08-20T23:54:07;12;9;7
